sensor_id;sensor_type;location;lat;lon;timestamp;pressure;altitude;pressure_sealevel;temperature;humidity
54588;BME280;40484;50.198;19.576;2023-05-02T00:00:45;101687.23;;;16.76;36.92
54588;BME280;40484;50.198;19.576;2023-05-02T00:08:47;101680.13;;;16.69;37.32
54588;BME280;40484;50.198;19.576;2023-05-02T00:13:49;101675.77;;;16.64;37.50
54588;BME280;40484;50.198;19.576;2023-05-02T00:18:51;101674.12;;;16.63;37.72
54588;BME280;40484;50.198;19.576;2023-05-02T00:23:52;101671.51;;;16.52;37.85
54588;BME280;40484;50.198;19.576;2023-05-02T00:28:54;101675.13;;;16.47;38.33
54588;BME280;40484;50.198;19.576;2023-05-02T00:33:55;101672.76;;;16.52;38.32
54588;BME280;40484;50.198;19.576;2023-05-02T00:38:57;101671.52;;;16.50;38.34
54588;BME280;40484;50.198;19.576;2023-05-02T00:43:58;101677.43;;;16.48;38.20
54588;BME280;40484;50.198;19.576;2023-05-02T00:49:00;101674.54;;;16.43;38.10
54588;BME280;40484;50.198;19.576;2023-05-02T00:54:02;101678.09;;;16.44;38.25
54588;BME280;40484;50.198;19.576;2023-05-02T00:59:08;101676.29;;;16.35;38.40
54588;BME280;40484;50.198;19.576;2023-05-02T01:14:54;101686.58;;;16.14;38.87
54588;BME280;40484;50.198;19.576;2023-05-02T01:20:22;101683.80;;;16.19;38.95
54588;BME280;40484;50.198;19.576;2023-05-02T01:25:32;101689.97;;;16.07;38.95
54588;BME280;40484;50.198;19.576;2023-05-02T01:30:35;101679.37;;;16.01;38.96
54588;BME280;40484;50.198;19.576;2023-05-02T01:35:37;101685.79;;;15.86;39.32
54588;BME280;40484;50.198;19.576;2023-05-02T01:40:40;101683.53;;;15.80;39.54
54588;BME280;40484;50.198;19.576;2023-05-02T01:45:43;101685.20;;;15.80;39.72
54588;BME280;40484;50.198;19.576;2023-05-02T01:50:46;101682.89;;;15.78;39.89
54588;BME280;40484;50.198;19.576;2023-05-02T01:55:51;101684.80;;;15.77;40.07
54588;BME280;40484;50.198;19.576;2023-05-02T02:00:53;101684.02;;;15.66;40.41
54588;BME280;40484;50.198;19.576;2023-05-02T02:05:55;101683.41;;;15.63;40.68
54588;BME280;40484;50.198;19.576;2023-05-02T02:10:59;101690.77;;;15.59;40.88
54588;BME280;40484;50.198;19.576;2023-05-02T02:16:03;101677.34;;;15.62;40.85
54588;BME280;40484;50.198;19.576;2023-05-02T02:21:10;101674.41;;;15.67;40.88
54588;BME280;40484;50.198;19.576;2023-05-02T02:26:13;101677.30;;;15.71;40.86
54588;BME280;40484;50.198;19.576;2023-05-02T02:31:15;101678.91;;;15.79;40.88
54588;BME280;40484;50.198;19.576;2023-05-02T02:36:25;101683.95;;;15.80;40.67
54588;BME280;40484;50.198;19.576;2023-05-02T02:47:47;101678.91;;;15.81;40.27
54588;BME280;40484;50.198;19.576;2023-05-02T02:53:03;101682.79;;;15.61;40.40
54588;BME280;40484;50.198;19.576;2023-05-02T03:03:32;101684.77;;;15.49;40.56
54588;BME280;40484;50.198;19.576;2023-05-02T03:08:59;101696.64;;;15.59;40.56
54588;BME280;40484;50.198;19.576;2023-05-02T03:14:01;101693.37;;;15.46;40.75
54588;BME280;40484;50.198;19.576;2023-05-02T03:19:03;101702.26;;;15.27;41.36
54588;BME280;40484;50.198;19.576;2023-05-02T03:24:04;101697.33;;;15.13;41.97
54588;BME280;40484;50.198;19.576;2023-05-02T03:29:06;101702.11;;;15.17;42.12
54588;BME280;40484;50.198;19.576;2023-05-02T03:34:08;101699.16;;;15.22;41.45
54588;BME280;40484;50.198;19.576;2023-05-02T03:39:09;101695.36;;;15.30;40.93
54588;BME280;40484;50.198;19.576;2023-05-02T03:44:11;101693.45;;;15.32;40.12
54588;BME280;40484;50.198;19.576;2023-05-02T03:49:13;101694.82;;;15.52;39.80
54588;BME280;40484;50.198;19.576;2023-05-02T03:54:14;101693.45;;;15.69;39.48
54588;BME280;40484;50.198;19.576;2023-05-02T03:59:16;101691.81;;;15.88;39.02
54588;BME280;40484;50.198;19.576;2023-05-02T04:04:17;101694.23;;;16.02;38.52
54588;BME280;40484;50.198;19.576;2023-05-02T04:09:19;101696.08;;;16.06;37.15
54588;BME280;40484;50.198;19.576;2023-05-02T04:14:22;101701.26;;;16.35;37.64
54588;BME280;40484;50.198;19.576;2023-05-02T04:19:24;101695.05;;;16.48;37.23
54588;BME280;40484;50.198;19.576;2023-05-02T04:24:25;101694.05;;;16.62;35.93
54588;BME280;40484;50.198;19.576;2023-05-02T04:29:27;101700.75;;;16.64;36.63
54588;BME280;40484;50.198;19.576;2023-05-02T04:34:28;101704.20;;;16.74;34.90
54588;BME280;40484;50.198;19.576;2023-05-02T04:39:30;101704.48;;;16.87;34.67
54588;BME280;40484;50.198;19.576;2023-05-02T04:44:32;101699.81;;;17.09;34.37
54588;BME280;40484;50.198;19.576;2023-05-02T04:49:33;101701.82;;;17.31;34.17
54588;BME280;40484;50.198;19.576;2023-05-02T04:54:35;101699.89;;;17.34;34.25
54588;BME280;40484;50.198;19.576;2023-05-02T05:00:01;101693.65;;;17.72;34.52
54588;BME280;40484;50.198;19.576;2023-05-02T05:05:02;101700.60;;;17.86;34.67
54588;BME280;40484;50.198;19.576;2023-05-02T05:10:05;101706.58;;;17.94;33.87
54588;BME280;40484;50.198;19.576;2023-05-02T05:15:07;101706.05;;;17.99;32.23
54588;BME280;40484;50.198;19.576;2023-05-02T05:20:09;101708.64;;;18.32;32.54
54588;BME280;40484;50.198;19.576;2023-05-02T05:25:10;101706.77;;;18.42;32.48
54588;BME280;40484;50.198;19.576;2023-05-02T05:30:12;101711.76;;;18.69;32.50
54588;BME280;40484;50.198;19.576;2023-05-02T05:35:13;101710.87;;;18.72;32.18
54588;BME280;40484;50.198;19.576;2023-05-02T05:40:15;101715.20;;;18.99;32.14
54588;BME280;40484;50.198;19.576;2023-05-02T05:45:17;101719.56;;;19.30;31.93
54588;BME280;40484;50.198;19.576;2023-05-02T05:50:19;101715.80;;;19.38;31.30
54588;BME280;40484;50.198;19.576;2023-05-02T05:55:21;101713.97;;;19.36;30.24
54588;BME280;40484;50.198;19.576;2023-05-02T06:00:22;101718.63;;;19.43;30.42
54588;BME280;40484;50.198;19.576;2023-05-02T06:05:24;101724.38;;;19.32;30.33
54588;BME280;40484;50.198;19.576;2023-05-02T06:10:25;101721.29;;;19.38;29.88
54588;BME280;40484;50.198;19.576;2023-05-02T06:15:27;101727.77;;;19.79;30.37
54588;BME280;40484;50.198;19.576;2023-05-02T06:20:28;101734.75;;;19.69;30.53
54588;BME280;40484;50.198;19.576;2023-05-02T06:25:30;101743.70;;;19.45;29.79
54588;BME280;40484;50.198;19.576;2023-05-02T06:30:33;101744.84;;;19.79;30.57
54588;BME280;40484;50.198;19.576;2023-05-02T06:35:35;101745.05;;;19.89;30.55
54588;BME280;40484;50.198;19.576;2023-05-02T06:40:36;101746.19;;;19.75;31.25
54588;BME280;40484;50.198;19.576;2023-05-02T06:46:05;101758.23;;;20.27;30.89
54588;BME280;40484;50.198;19.576;2023-05-02T06:51:06;101768.46;;;20.22;30.76
54588;BME280;40484;50.198;19.576;2023-05-02T06:56:08;101767.73;;;20.18;30.79
54588;BME280;40484;50.198;19.576;2023-05-02T07:01:09;101773.30;;;20.32;30.94
54588;BME280;40484;50.198;19.576;2023-05-02T07:06:12;101765.99;;;20.45;31.22
54588;BME280;40484;50.198;19.576;2023-05-02T07:11:14;101770.44;;;20.29;31.55
54588;BME280;40484;50.198;19.576;2023-05-02T07:16:16;101774.41;;;20.38;32.32
54588;BME280;40484;50.198;19.576;2023-05-02T07:21:17;101783.02;;;20.15;31.58
54588;BME280;40484;50.198;19.576;2023-05-02T07:26:19;101784.20;;;20.35;32.28
54588;BME280;40484;50.198;19.576;2023-05-02T07:31:22;101786.52;;;20.44;32.13
54588;BME280;40484;50.198;19.576;2023-05-02T07:36:23;101789.91;;;20.61;32.57
54588;BME280;40484;50.198;19.576;2023-05-02T07:41:25;101793.56;;;20.89;33.01
54588;BME280;40484;50.198;19.576;2023-05-02T07:46:26;101788.39;;;21.31;32.73
54588;BME280;40484;50.198;19.576;2023-05-02T07:51:28;101796.93;;;21.35;33.24
54588;BME280;40484;50.198;19.576;2023-05-02T07:56:29;101787.92;;;21.24;32.22
54588;BME280;40484;50.198;19.576;2023-05-02T08:01:31;101786.12;;;21.79;32.51
54588;BME280;40484;50.198;19.576;2023-05-02T08:06:32;101788.24;;;21.72;32.11
54588;BME280;40484;50.198;19.576;2023-05-02T08:11:34;101787.71;;;21.54;32.59
54588;BME280;40484;50.198;19.576;2023-05-02T08:16:35;101787.62;;;21.35;32.66
54588;BME280;40484;50.198;19.576;2023-05-02T08:21:37;101789.52;;;21.64;32.08
54588;BME280;40484;50.198;19.576;2023-05-02T08:26:38;101786.76;;;21.72;33.11
54588;BME280;40484;50.198;19.576;2023-05-02T08:31:40;101789.76;;;22.04;32.33
54588;BME280;40484;50.198;19.576;2023-05-02T08:37:07;101789.38;;;22.23;31.62
54588;BME280;40484;50.198;19.576;2023-05-02T08:42:09;101800.04;;;22.20;31.36
54588;BME280;40484;50.198;19.576;2023-05-02T08:47:12;101791.05;;;22.30;31.42
54588;BME280;40484;50.198;19.576;2023-05-02T08:52:15;101795.98;;;22.14;31.58
54588;BME280;40484;50.198;19.576;2023-05-02T08:57:18;101809.88;;;22.17;31.61
54588;BME280;40484;50.198;19.576;2023-05-02T09:07:45;101784.91;;;22.48;32.07
54588;BME280;40484;50.198;19.576;2023-05-02T09:12:47;101787.23;;;22.72;31.20
54588;BME280;40484;50.198;19.576;2023-05-02T09:17:49;101789.80;;;22.72;32.12
54588;BME280;40484;50.198;19.576;2023-05-02T09:22:51;101792.45;;;22.51;30.65
54588;BME280;40484;50.198;19.576;2023-05-02T09:27:54;101788.81;;;22.51;31.67
54588;BME280;40484;50.198;19.576;2023-05-02T09:32:56;101798.39;;;22.81;31.41
54588;BME280;40484;50.198;19.576;2023-05-02T09:37:58;101795.93;;;22.73;31.24
54588;BME280;40484;50.198;19.576;2023-05-02T09:43:12;101807.70;;;22.64;31.28
54588;BME280;40484;50.198;19.576;2023-05-02T09:48:03;101806.21;;;22.38;31.50
54588;BME280;40484;50.198;19.576;2023-05-02T09:53:06;101818.98;;;22.31;31.40
54588;BME280;40484;50.198;19.576;2023-05-02T09:58:33;101822.20;;;22.15;32.48
54588;BME280;40484;50.198;19.576;2023-05-02T10:03:36;101831.89;;;21.97;33.22
54588;BME280;40484;50.198;19.576;2023-05-02T10:08:38;101827.22;;;22.04;32.80
54588;BME280;40484;50.198;19.576;2023-05-02T10:13:40;101834.45;;;21.75;32.34
54588;BME280;40484;50.198;19.576;2023-05-02T10:18:47;101833.20;;;22.29;32.91
54588;BME280;40484;50.198;19.576;2023-05-02T10:23:49;101829.65;;;22.35;32.55
54588;BME280;40484;50.198;19.576;2023-05-02T10:28:54;101819.44;;;22.36;32.06
54588;BME280;40484;50.198;19.576;2023-05-02T10:33:57;101820.22;;;22.38;31.97
54588;BME280;40484;50.198;19.576;2023-05-02T10:39:00;101814.98;;;22.42;32.02
54588;BME280;40484;50.198;19.576;2023-05-02T10:44:03;101830.43;;;22.37;31.98
54588;BME280;40484;50.198;19.576;2023-05-02T10:49:10;101828.53;;;22.30;32.18
54588;BME280;40484;50.198;19.576;2023-05-02T10:59:26;101822.36;;;23.56;30.84
54588;BME280;40484;50.198;19.576;2023-05-02T11:04:59;101827.84;;;23.29;29.47
54588;BME280;40484;50.198;19.576;2023-05-02T11:10:26;101825.83;;;23.37;29.17
54588;BME280;40484;50.198;19.576;2023-05-02T11:20:34;101827.55;;;23.71;28.96
54588;BME280;40484;50.198;19.576;2023-05-02T11:25:37;101830.16;;;23.30;29.24
54588;BME280;40484;50.198;19.576;2023-05-02T11:30:43;101845.29;;;23.34;29.25
54588;BME280;40484;50.198;19.576;2023-05-02T11:35:46;101848.27;;;22.73;29.71
54588;BME280;40484;50.198;19.576;2023-05-02T11:40:53;101842.81;;;22.46;30.85
54588;BME280;40484;50.198;19.576;2023-05-02T11:45:53;101853.85;;;22.59;31.03
54588;BME280;40484;50.198;19.576;2023-05-02T11:50:56;101853.53;;;22.36;31.12
54588;BME280;40484;50.198;19.576;2023-05-02T11:56:00;101856.04;;;22.31;31.42
54588;BME280;40484;50.198;19.576;2023-05-02T12:01:11;101852.86;;;22.17;32.12
54588;BME280;40484;50.198;19.576;2023-05-02T12:06:15;101853.49;;;22.31;33.16
54588;BME280;40484;50.198;19.576;2023-05-02T12:11:19;101866.12;;;22.20;34.79
54588;BME280;40484;50.198;19.576;2023-05-02T12:16:21;101848.88;;;22.30;35.17
54588;BME280;40484;50.198;19.576;2023-05-02T12:21:22;101846.66;;;22.19;35.60
54588;BME280;40484;50.198;19.576;2023-05-02T12:26:24;101854.42;;;22.28;35.90
54588;BME280;40484;50.198;19.576;2023-05-02T12:31:55;101850.64;;;22.40;35.48
54588;BME280;40484;50.198;19.576;2023-05-02T12:36:58;101852.29;;;22.60;35.25
54588;BME280;40484;50.198;19.576;2023-05-02T12:42:11;101865.41;;;22.61;35.64
54588;BME280;40484;50.198;19.576;2023-05-02T12:47:13;101862.74;;;22.52;35.62
54588;BME280;40484;50.198;19.576;2023-05-02T12:52:15;101859.59;;;22.26;36.49
54588;BME280;40484;50.198;19.576;2023-05-02T12:57:23;101871.69;;;22.57;36.81
54588;BME280;40484;50.198;19.576;2023-05-02T13:02:26;101879.65;;;22.47;35.88
54588;BME280;40484;50.198;19.576;2023-05-02T13:07:27;101889.36;;;22.28;36.55
54588;BME280;40484;50.198;19.576;2023-05-02T13:12:29;101876.27;;;22.34;36.62
54588;BME280;40484;50.198;19.576;2023-05-02T13:17:31;101882.24;;;22.39;36.22
54588;BME280;40484;50.198;19.576;2023-05-02T13:22:33;101884.98;;;22.12;36.69
54588;BME280;40484;50.198;19.576;2023-05-02T13:27:34;101874.76;;;22.00;36.67
54588;BME280;40484;50.198;19.576;2023-05-02T13:32:36;101888.85;;;21.96;36.63
54588;BME280;40484;50.198;19.576;2023-05-02T13:37:37;101889.28;;;22.03;36.88
54588;BME280;40484;50.198;19.576;2023-05-02T13:42:39;101892.88;;;21.75;36.60
54588;BME280;40484;50.198;19.576;2023-05-02T13:47:40;101891.11;;;21.78;37.15
54588;BME280;40484;50.198;19.576;2023-05-02T13:52:42;101904.57;;;21.80;36.81
54588;BME280;40484;50.198;19.576;2023-05-02T13:57:43;101893.77;;;21.59;37.36
54588;BME280;40484;50.198;19.576;2023-05-02T14:03:11;101898.67;;;21.72;37.43
54588;BME280;40484;50.198;19.576;2023-05-02T14:08:13;101902.00;;;21.74;37.76
54588;BME280;40484;50.198;19.576;2023-05-02T14:13:16;101905.52;;;21.69;38.03
54588;BME280;40484;50.198;19.576;2023-05-02T14:18:18;101914.01;;;21.83;38.21
54588;BME280;40484;50.198;19.576;2023-05-02T14:23:19;101935.46;;;21.87;37.53
54588;BME280;40484;50.198;19.576;2023-05-02T14:28:21;101930.20;;;21.79;37.10
54588;BME280;40484;50.198;19.576;2023-05-02T14:33:23;101929.39;;;21.70;37.14
54588;BME280;40484;50.198;19.576;2023-05-02T14:38:24;101943.27;;;21.36;36.96
54588;BME280;40484;50.198;19.576;2023-05-02T14:43:26;101935.69;;;21.43;37.04
54588;BME280;40484;50.198;19.576;2023-05-02T14:48:28;101936.95;;;21.34;36.91
54588;BME280;40484;50.198;19.576;2023-05-02T14:53:29;101941.35;;;21.11;37.13
54588;BME280;40484;50.198;19.576;2023-05-02T14:58:31;101939.73;;;21.08;36.75
54588;BME280;40484;50.198;19.576;2023-05-02T15:03:32;101940.71;;;21.36;36.72
54588;BME280;40484;50.198;19.576;2023-05-02T15:08:34;101936.51;;;21.44;36.14
54588;BME280;40484;50.198;19.576;2023-05-02T15:13:36;101954.71;;;21.17;36.18
54588;BME280;40484;50.198;19.576;2023-05-02T15:18:37;101949.45;;;21.01;36.63
54588;BME280;40484;50.198;19.576;2023-05-02T15:23:39;101949.02;;;21.08;36.63
54588;BME280;40484;50.198;19.576;2023-05-02T15:28:41;101962.09;;;20.77;36.44
54588;BME280;40484;50.198;19.576;2023-05-02T15:33:43;101958.35;;;20.82;36.45
54588;BME280;40484;50.198;19.576;2023-05-02T15:38:45;101979.59;;;20.69;36.82
54588;BME280;40484;50.198;19.576;2023-05-02T15:43:47;101991.41;;;20.41;36.51
54588;BME280;40484;50.198;19.576;2023-05-02T15:49:15;101989.13;;;20.59;36.18
54588;BME280;40484;50.198;19.576;2023-05-02T15:54:16;102001.94;;;20.42;35.52
54588;BME280;40484;50.198;19.576;2023-05-02T15:59:18;102008.14;;;20.28;35.22
54588;BME280;40484;50.198;19.576;2023-05-02T16:04:20;102022.91;;;20.20;35.29
54588;BME280;40484;50.198;19.576;2023-05-02T16:09:21;102032.59;;;20.40;34.92
54588;BME280;40484;50.198;19.576;2023-05-02T16:14:23;102032.94;;;20.14;33.81
54588;BME280;40484;50.198;19.576;2023-05-02T16:19:26;102052.66;;;19.77;34.17
54588;BME280;40484;50.198;19.576;2023-05-02T16:24:27;102053.66;;;19.42;35.25
54588;BME280;40484;50.198;19.576;2023-05-02T16:29:29;102069.31;;;19.52;36.46
54588;BME280;40484;50.198;19.576;2023-05-02T16:34:30;102067.76;;;19.44;37.60
54588;BME280;40484;50.198;19.576;2023-05-02T16:39:33;102070.30;;;19.17;38.56
54588;BME280;40484;50.198;19.576;2023-05-02T16:44:34;102088.38;;;18.93;39.92
54588;BME280;40484;50.198;19.576;2023-05-02T16:49:36;102095.58;;;18.91;40.67
54588;BME280;40484;50.198;19.576;2023-05-02T16:54:39;102096.52;;;18.99;41.32
54588;BME280;40484;50.198;19.576;2023-05-02T16:59:40;102064.32;;;19.47;41.77
54588;BME280;40484;50.198;19.576;2023-05-02T17:04:42;102081.69;;;19.69;42.47
54588;BME280;40484;50.198;19.576;2023-05-02T17:09:43;102104.93;;;19.90;42.04
54588;BME280;40484;50.198;19.576;2023-05-02T17:14:45;102105.99;;;20.02;42.48
54588;BME280;40484;50.198;19.576;2023-05-02T17:19:46;102115.99;;;19.98;43.44
54588;BME280;40484;50.198;19.576;2023-05-02T17:24:48;102125.77;;;19.93;43.95
54588;BME280;40484;50.198;19.576;2023-05-02T17:29:52;102137.96;;;19.85;44.01
54588;BME280;40484;50.198;19.576;2023-05-02T17:35:19;102155.35;;;19.79;44.08
54588;BME280;40484;50.198;19.576;2023-05-02T17:40:21;102164.73;;;19.45;44.84
54588;BME280;40484;50.198;19.576;2023-05-02T17:45:22;102168.96;;;19.29;45.78
54588;BME280;40484;50.198;19.576;2023-05-02T17:50:24;102181.23;;;19.14;46.20
54588;BME280;40484;50.198;19.576;2023-05-02T17:55:26;102210.15;;;19.07;45.88
54588;BME280;40484;50.198;19.576;2023-05-02T18:00:27;102223.09;;;19.19;46.09
54588;BME280;40484;50.198;19.576;2023-05-02T18:05:32;102213.41;;;19.18;46.46
54588;BME280;40484;50.198;19.576;2023-05-02T18:10:36;102233.76;;;19.24;46.22
54588;BME280;40484;50.198;19.576;2023-05-02T18:15:37;102231.39;;;19.28;46.73
54588;BME280;40484;50.198;19.576;2023-05-02T18:20:39;102223.41;;;19.26;46.44
54588;BME280;40484;50.198;19.576;2023-05-02T18:25:40;102222.79;;;19.25;46.44
54588;BME280;40484;50.198;19.576;2023-05-02T18:30:42;102219.65;;;19.24;46.36
54588;BME280;40484;50.198;19.576;2023-05-02T18:35:45;102212.56;;;19.18;46.64
54588;BME280;40484;50.198;19.576;2023-05-02T18:40:49;102215.05;;;19.04;47.14
54588;BME280;40484;50.198;19.576;2023-05-02T18:45:51;102209.13;;;18.91;47.55
54588;BME280;40484;50.198;19.576;2023-05-02T18:50:55;102207.53;;;18.99;47.39
54588;BME280;40484;50.198;19.576;2023-05-02T18:55:57;102202.59;;;19.08;47.65
54588;BME280;40484;50.198;19.576;2023-05-02T19:00:58;102199.58;;;19.12;47.45
54588;BME280;40484;50.198;19.576;2023-05-02T19:06:00;102198.59;;;19.07;47.74
54588;BME280;40484;50.198;19.576;2023-05-02T19:11:01;102203.81;;;18.76;47.86
54588;BME280;40484;50.198;19.576;2023-05-02T19:16:28;102200.98;;;18.47;48.31
54588;BME280;40484;50.198;19.576;2023-05-02T19:21:31;102203.14;;;18.20;48.89
54588;BME280;40484;50.198;19.576;2023-05-02T19:26:36;102207.02;;;18.10;49.38
54588;BME280;40484;50.198;19.576;2023-05-02T19:31:38;102201.77;;;17.87;49.71
54588;BME280;40484;50.198;19.576;2023-05-02T19:36:40;102199.05;;;17.84;49.86
54588;BME280;40484;50.198;19.576;2023-05-02T19:41:43;102203.84;;;17.90;49.77
54588;BME280;40484;50.198;19.576;2023-05-02T19:46:44;102206.99;;;18.14;49.51
54588;BME280;40484;50.198;19.576;2023-05-02T19:51:46;102214.50;;;18.22;49.20
54588;BME280;40484;50.198;19.576;2023-05-02T19:56:47;102216.80;;;18.00;49.54
54588;BME280;40484;50.198;19.576;2023-05-02T20:01:49;102227.63;;;17.86;49.92
54588;BME280;40484;50.198;19.576;2023-05-02T20:06:50;102226.03;;;17.72;50.14
54588;BME280;40484;50.198;19.576;2023-05-02T20:11:52;102237.59;;;17.75;50.15
54588;BME280;40484;50.198;19.576;2023-05-02T20:16:53;102233.67;;;17.94;49.73
54588;BME280;40484;50.198;19.576;2023-05-02T20:21:57;102233.91;;;17.91;49.49
54588;BME280;40484;50.198;19.576;2023-05-02T20:26:58;102233.99;;;18.05;49.16
54588;BME280;40484;50.198;19.576;2023-05-02T20:32:00;102236.86;;;18.14;48.83
54588;BME280;40484;50.198;19.576;2023-05-02T20:37:03;102241.62;;;18.25;48.87
54588;BME280;40484;50.198;19.576;2023-05-02T20:42:06;102240.63;;;18.39;48.59
54588;BME280;40484;50.198;19.576;2023-05-02T20:47:09;102253.39;;;18.46;48.57
54588;BME280;40484;50.198;19.576;2023-05-02T20:52:10;102252.38;;;18.44;48.25
54588;BME280;40484;50.198;19.576;2023-05-02T20:57:38;102266.14;;;18.56;48.09
54588;BME280;40484;50.198;19.576;2023-05-02T21:02:39;102273.75;;;18.52;48.03
54588;BME280;40484;50.198;19.576;2023-05-02T21:07:41;102276.14;;;18.24;48.38
54588;BME280;40484;50.198;19.576;2023-05-02T21:12:42;102277.55;;;18.05;48.72
54588;BME280;40484;50.198;19.576;2023-05-02T21:17:44;102271.41;;;18.10;48.31
54588;BME280;40484;50.198;19.576;2023-05-02T21:22:45;102286.27;;;17.94;48.51
54588;BME280;40484;50.198;19.576;2023-05-02T21:27:47;102291.07;;;17.97;48.56
54588;BME280;40484;50.198;19.576;2023-05-02T21:32:48;102293.91;;;17.82;48.97
54588;BME280;40484;50.198;19.576;2023-05-02T21:37:50;102297.97;;;17.69;49.64
54588;BME280;40484;50.198;19.576;2023-05-02T21:42:52;102301.50;;;17.81;49.21
54588;BME280;40484;50.198;19.576;2023-05-02T21:47:53;102299.18;;;17.77;49.38
54588;BME280;40484;50.198;19.576;2023-05-02T21:52:55;102294.85;;;17.98;49.15
54588;BME280;40484;50.198;19.576;2023-05-02T21:57:56;102299.47;;;17.99;49.02
54588;BME280;40484;50.198;19.576;2023-05-02T22:02:58;102309.80;;;17.97;49.04
54588;BME280;40484;50.198;19.576;2023-05-02T22:08:05;102312.38;;;17.88;49.31
54588;BME280;40484;50.198;19.576;2023-05-02T22:13:11;102315.39;;;17.81;49.55
54588;BME280;40484;50.198;19.576;2023-05-02T22:18:14;102323.58;;;17.80;49.46
54588;BME280;40484;50.198;19.576;2023-05-02T22:23:16;102320.56;;;17.46;50.17
54588;BME280;40484;50.198;19.576;2023-05-02T22:28:18;102323.98;;;17.34;50.54
54588;BME280;40484;50.198;19.576;2023-05-02T22:33:19;102332.41;;;17.30;50.55
54588;BME280;40484;50.198;19.576;2023-05-02T22:38:46;102329.40;;;17.48;50.00
54588;BME280;40484;50.198;19.576;2023-05-02T22:43:47;102339.98;;;17.29;50.22
54588;BME280;40484;50.198;19.576;2023-05-02T22:48:49;102338.95;;;17.26;50.36
54588;BME280;40484;50.198;19.576;2023-05-02T22:53:53;102344.22;;;17.23;50.42
54588;BME280;40484;50.198;19.576;2023-05-02T22:58:55;102350.60;;;17.00;50.84
54588;BME280;40484;50.198;19.576;2023-05-02T23:03:56;102351.47;;;16.88;51.17
54588;BME280;40484;50.198;19.576;2023-05-02T23:08:58;102349.36;;;16.78;51.80
54588;BME280;40484;50.198;19.576;2023-05-02T23:13:59;102351.47;;;16.63;52.03
54588;BME280;40484;50.198;19.576;2023-05-02T23:19:01;102354.59;;;16.50;52.41
54588;BME280;40484;50.198;19.576;2023-05-02T23:24:02;102348.09;;;16.34;52.91
54588;BME280;40484;50.198;19.576;2023-05-02T23:29:04;102352.30;;;16.26;53.19
54588;BME280;40484;50.198;19.576;2023-05-02T23:34:06;102354.80;;;16.26;53.23
54588;BME280;40484;50.198;19.576;2023-05-02T23:39:07;102353.98;;;16.11;53.51
54588;BME280;40484;50.198;19.576;2023-05-02T23:44:09;102349.77;;;16.17;53.46
54588;BME280;40484;50.198;19.576;2023-05-02T23:49:11;102340.95;;;16.19;53.34
54588;BME280;40484;50.198;19.576;2023-05-02T23:54:12;102343.91;;;16.33;52.99
54588;BME280;40484;50.198;19.576;2023-05-02T23:59:14;102340.75;;;16.36;52.85
